sensor_id;sensor_type;location;lat;lon;timestamp;pressure;altitude;pressure_sealevel;temperature;humidity
33163;BME280;29282;45.656;11.302;2022-11-13T00:00:34;99495.88;;;18.57;66.53
33163;BME280;29282;45.656;11.302;2022-11-13T00:02:59;99504.91;;;18.57;66.49
33163;BME280;29282;45.656;11.302;2022-11-13T00:05:25;99493.13;;;18.57;66.67
33163;BME280;29282;45.656;11.302;2022-11-13T00:07:50;99490.38;;;18.57;66.51
33163;BME280;29282;45.656;11.302;2022-11-13T00:10:16;99489.88;;;18.54;66.43
33163;BME280;29282;45.656;11.302;2022-11-13T00:12:41;99495.38;;;18.54;66.54
33163;BME280;29282;45.656;11.302;2022-11-13T00:15:07;99487.44;;;18.53;66.51
33163;BME280;29282;45.656;11.302;2022-11-13T00:17:33;99486.63;;;18.52;66.55
33163;BME280;29282;45.656;11.302;2022-11-13T00:19:58;99499.53;;;18.52;66.55
33163;BME280;29282;45.656;11.302;2022-11-13T00:22:24;99502.28;;;18.52;66.48
33163;BME280;29282;45.656;11.302;2022-11-13T00:24:49;99494.84;;;18.52;66.61
33163;BME280;29282;45.656;11.302;2022-11-13T00:27:15;99500.66;;;18.51;66.36
33163;BME280;29282;45.656;11.302;2022-11-13T00:29:40;99485.28;;;18.50;66.36
33163;BME280;29282;45.656;11.302;2022-11-13T00:32:06;99493.25;;;18.51;66.39
33163;BME280;29282;45.656;11.302;2022-11-13T00:34:31;99479.81;;;18.50;66.46
33163;BME280;29282;45.656;11.302;2022-11-13T00:36:57;99479.31;;;18.48;66.39
33163;BME280;29282;45.656;11.302;2022-11-13T00:39:23;99488.38;;;18.48;66.43
33163;BME280;29282;45.656;11.302;2022-11-13T00:41:48;99479.31;;;18.48;66.24
33163;BME280;29282;45.656;11.302;2022-11-13T00:44:14;99499.03;;;18.50;66.43
33163;BME280;29282;45.656;11.302;2022-11-13T00:46:39;99489.47;;;18.47;66.53
33163;BME280;29282;45.656;11.302;2022-11-13T00:49:05;99491.41;;;18.47;66.43
33163;BME280;29282;45.656;11.302;2022-11-13T00:51:31;99487.84;;;18.46;66.26
33163;BME280;29282;45.656;11.302;2022-11-13T00:53:57;99488.66;;;18.47;66.60
33163;BME280;29282;45.656;11.302;2022-11-13T00:56:22;99487.03;;;18.46;66.19
33163;BME280;29282;45.656;11.302;2022-11-13T00:58:48;99487.34;;;18.44;66.24
33163;BME280;29282;45.656;11.302;2022-11-13T01:01:15;99477.19;;;18.45;66.43
33163;BME280;29282;45.656;11.302;2022-11-13T01:03:41;99480.22;;;18.43;66.40
33163;BME280;29282;45.656;11.302;2022-11-13T01:06:14;99476.66;;;18.43;66.16
33163;BME280;29282;45.656;11.302;2022-11-13T01:08:41;99476.66;;;18.43;66.04
33163;BME280;29282;45.656;11.302;2022-11-13T01:11:12;99469.56;;;18.42;66.15
33163;BME280;29282;45.656;11.302;2022-11-13T01:13:39;99467.91;;;18.41;66.05
33163;BME280;29282;45.656;11.302;2022-11-13T01:16:07;99463.28;;;18.41;66.20
33163;BME280;29282;45.656;11.302;2022-11-13T01:18:32;99459.69;;;18.41;66.23
33163;BME280;29282;45.656;11.302;2022-11-13T01:21:15;99461.34;;;18.42;66.10
33163;BME280;29282;45.656;11.302;2022-11-13T01:23:42;99460.53;;;18.41;66.11
33163;BME280;29282;45.656;11.302;2022-11-13T01:28:43;99448.22;;;18.39;66.15
33163;BME280;29282;45.656;11.302;2022-11-13T01:31:20;99435.63;;;18.38;66.01
33163;BME280;29282;45.656;11.302;2022-11-13T01:33:47;99433.69;;;18.38;65.91
33163;BME280;29282;45.656;11.302;2022-11-13T01:36:21;99432.88;;;18.38;66.23
33163;BME280;29282;45.656;11.302;2022-11-13T01:38:47;99432.06;;;18.37;66.05
33163;BME280;29282;45.656;11.302;2022-11-13T01:41:19;99426.56;;;18.37;65.93
33163;BME280;29282;45.656;11.302;2022-11-13T01:43:46;99433.97;;;18.37;65.99
33163;BME280;29282;45.656;11.302;2022-11-13T01:48:39;99424.13;;;18.36;66.00
33163;BME280;29282;45.656;11.302;2022-11-13T01:51:18;99423.34;;;18.35;66.06
33163;BME280;29282;45.656;11.302;2022-11-13T01:53:46;99422.53;;;18.35;66.04
33163;BME280;29282;45.656;11.302;2022-11-13T01:56:13;99423.34;;;18.35;65.93
33163;BME280;29282;45.656;11.302;2022-11-13T01:58:41;99418.13;;;18.34;66.38
33163;BME280;29282;45.656;11.302;2022-11-13T02:01:08;99419.25;;;18.33;65.92
33163;BME280;29282;45.656;11.302;2022-11-13T02:03:33;99417.66;;;18.31;66.05
33163;BME280;29282;45.656;11.302;2022-11-13T02:05:59;99428.31;;;18.33;65.96
33163;BME280;29282;45.656;11.302;2022-11-13T02:08:25;99420.38;;;18.31;66.09
33163;BME280;29282;45.656;11.302;2022-11-13T02:10:50;99416.84;;;18.31;66.13
33163;BME280;29282;45.656;11.302;2022-11-13T02:13:16;99410.50;;;18.30;65.86
33163;BME280;29282;45.656;11.302;2022-11-13T02:15:44;99402.28;;;18.30;65.88
33163;BME280;29282;45.656;11.302;2022-11-13T02:18:11;99402.28;;;18.30;65.89
33163;BME280;29282;45.656;11.302;2022-11-13T02:20:55;99398.72;;;18.30;65.94
33163;BME280;29282;45.656;11.302;2022-11-13T02:23:45;99400.66;;;18.29;65.92
33163;BME280;29282;45.656;11.302;2022-11-13T02:26:14;99391.13;;;18.27;65.91
33163;BME280;29282;45.656;11.302;2022-11-13T02:28:43;99392.75;;;18.28;65.84
33163;BME280;29282;45.656;11.302;2022-11-13T02:31:10;99391.91;;;18.27;65.80
33163;BME280;29282;45.656;11.302;2022-11-13T02:33:36;99389.19;;;18.27;65.78
33163;BME280;29282;45.656;11.302;2022-11-13T02:36:02;99384.81;;;18.26;65.76
33163;BME280;29282;45.656;11.302;2022-11-13T02:38:29;99374.16;;;18.25;65.78
33163;BME280;29282;45.656;11.302;2022-11-13T02:40:56;99380.75;;;18.24;65.83
33163;BME280;29282;45.656;11.302;2022-11-13T02:43:21;99387.03;;;18.24;65.85
33163;BME280;29282;45.656;11.302;2022-11-13T02:45:47;99380.75;;;18.24;65.78
33163;BME280;29282;45.656;11.302;2022-11-13T02:48:12;99380.75;;;18.24;65.74
33163;BME280;29282;45.656;11.302;2022-11-13T02:50:38;99378.31;;;18.22;65.86
33163;BME280;29282;45.656;11.302;2022-11-13T02:53:04;99382.69;;;18.23;65.78
33163;BME280;29282;45.656;11.302;2022-11-13T02:55:30;99383.81;;;18.22;65.65
33163;BME280;29282;45.656;11.302;2022-11-13T02:57:55;99390.91;;;18.23;65.76
33163;BME280;29282;45.656;11.302;2022-11-13T03:00:21;99391.25;;;18.22;65.68
33163;BME280;29282;45.656;11.302;2022-11-13T03:02:46;99388.50;;;18.22;65.77
33163;BME280;29282;45.656;11.302;2022-11-13T03:05:12;99389.31;;;18.22;65.68
33163;BME280;29282;45.656;11.302;2022-11-13T03:07:37;99380.56;;;18.20;65.78
33163;BME280;29282;45.656;11.302;2022-11-13T03:10:06;99384.44;;;18.19;65.59
33163;BME280;29282;45.656;11.302;2022-11-13T03:12:32;99384.44;;;18.19;65.54
33163;BME280;29282;45.656;11.302;2022-11-13T03:14:58;99387.16;;;18.19;65.74
33163;BME280;29282;45.656;11.302;2022-11-13T03:17:23;99383.63;;;18.19;65.64
33163;BME280;29282;45.656;11.302;2022-11-13T03:19:49;99386.34;;;18.19;65.67
33163;BME280;29282;45.656;11.302;2022-11-13T03:22:14;99378.13;;;18.19;65.62
33163;BME280;29282;45.656;11.302;2022-11-13T03:24:40;99382.81;;;18.18;65.67
33163;BME280;29282;45.656;11.302;2022-11-13T03:27:05;99388.28;;;18.18;65.56
33163;BME280;29282;45.656;11.302;2022-11-13T03:29:30;99382.28;;;18.16;65.55
33163;BME280;29282;45.656;11.302;2022-11-13T03:31:56;99382.28;;;18.16;65.45
33163;BME280;29282;45.656;11.302;2022-11-13T03:34:21;99381.47;;;18.16;65.52
33163;BME280;29282;45.656;11.302;2022-11-13T03:36:47;99388.91;;;18.15;65.57
33163;BME280;29282;45.656;11.302;2022-11-13T03:39:13;99379.03;;;18.14;65.40
33163;BME280;29282;45.656;11.302;2022-11-13T03:41:38;99382.63;;;18.15;65.53
33163;BME280;29282;45.656;11.302;2022-11-13T03:44:04;99380.97;;;18.14;65.49
33163;BME280;29282;45.656;11.302;2022-11-13T03:46:32;99380.97;;;18.14;65.47
33163;BME280;29282;45.656;11.302;2022-11-13T03:48:57;99375.81;;;18.12;65.40
33163;BME280;29282;45.656;11.302;2022-11-13T03:51:23;99371.94;;;18.13;65.49
33163;BME280;29282;45.656;11.302;2022-11-13T03:53:48;99370.31;;;18.12;65.36
33163;BME280;29282;45.656;11.302;2022-11-13T03:56:14;99370.31;;;18.12;65.36
33163;BME280;29282;45.656;11.302;2022-11-13T03:58:39;99353.06;;;18.12;65.34
33163;BME280;29282;45.656;11.302;2022-11-13T04:01:05;99363.19;;;18.11;65.46
33163;BME280;29282;45.656;11.302;2022-11-13T04:03:30;99353.34;;;18.10;65.25
33163;BME280;29282;45.656;11.302;2022-11-13T04:05:56;99352.53;;;18.10;65.36
33163;BME280;29282;45.656;11.302;2022-11-13T04:08:21;99347.84;;;18.10;65.26
33163;BME280;29282;45.656;11.302;2022-11-13T04:10:47;99360.44;;;18.11;65.26
33163;BME280;29282;45.656;11.302;2022-11-13T04:13:12;99351.72;;;18.09;65.21
33163;BME280;29282;45.656;11.302;2022-11-13T04:15:38;99347.06;;;18.10;65.28
33163;BME280;29282;45.656;11.302;2022-11-13T04:18:03;99340.75;;;18.09;65.16
33163;BME280;29282;45.656;11.302;2022-11-13T04:20:29;99350.13;;;18.08;65.18
33163;BME280;29282;45.656;11.302;2022-11-13T04:22:55;99350.91;;;18.08;65.28
33163;BME280;29282;45.656;11.302;2022-11-13T04:25:21;99343.78;;;18.07;65.36
33163;BME280;29282;45.656;11.302;2022-11-13T04:27:51;99335.88;;;18.06;65.29
33163;BME280;29282;45.656;11.302;2022-11-13T04:30:17;99344.13;;;18.06;65.20
33163;BME280;29282;45.656;11.302;2022-11-13T04:32:43;99344.91;;;18.06;65.14
33163;BME280;29282;45.656;11.302;2022-11-13T04:35:09;99348.47;;;18.07;65.18
33163;BME280;29282;45.656;11.302;2022-11-13T04:37:35;99349.28;;;18.07;65.05
33163;BME280;29282;45.656;11.302;2022-11-13T04:40:01;99346.84;;;18.06;65.01
33163;BME280;29282;45.656;11.302;2022-11-13T04:42:27;99353.94;;;18.07;64.98
33163;BME280;29282;45.656;11.302;2022-11-13T04:45:11;99352.63;;;18.04;65.04
33163;BME280;29282;45.656;11.302;2022-11-13T04:47:37;99346.03;;;18.05;65.21
33163;BME280;29282;45.656;11.302;2022-11-13T04:50:03;99343.59;;;18.04;64.97
33163;BME280;29282;45.656;11.302;2022-11-13T04:52:29;99349.88;;;18.04;65.25
33163;BME280;29282;45.656;11.302;2022-11-13T04:54:55;99352.63;;;18.04;64.95
33163;BME280;29282;45.656;11.302;2022-11-13T04:57:21;99352.63;;;18.04;64.97
33163;BME280;29282;45.656;11.302;2022-11-13T04:59:47;99351.00;;;18.03;65.15
33163;BME280;29282;45.656;11.302;2022-11-13T05:02:12;99351.81;;;18.04;65.10
33163;BME280;29282;45.656;11.302;2022-11-13T05:04:38;99354.06;;;18.02;64.96
33163;BME280;29282;45.656;11.302;2022-11-13T05:07:03;99345.84;;;18.02;65.08
33163;BME280;29282;45.656;11.302;2022-11-13T05:09:29;99351.34;;;18.02;65.04
33163;BME280;29282;45.656;11.302;2022-11-13T05:11:54;99343.09;;;18.02;64.93
33163;BME280;29282;45.656;11.302;2022-11-13T05:14:20;99343.91;;;18.02;64.98
33163;BME280;29282;45.656;11.302;2022-11-13T05:16:45;99352.13;;;18.02;64.94
33163;BME280;29282;45.656;11.302;2022-11-13T05:19:11;99355.16;;;18.01;64.87
33163;BME280;29282;45.656;11.302;2022-11-13T05:21:38;99348.88;;;18.00;64.84
33163;BME280;29282;45.656;11.302;2022-11-13T05:24:04;99360.66;;;18.01;64.81
33163;BME280;29282;45.656;11.302;2022-11-13T05:26:29;99357.91;;;18.01;64.75
33163;BME280;29282;45.656;11.302;2022-11-13T05:28:56;99359.03;;;18.00;64.94
33163;BME280;29282;45.656;11.302;2022-11-13T05:31:23;99364.53;;;18.00;64.85
33163;BME280;29282;45.656;11.302;2022-11-13T05:33:49;99369.19;;;17.99;64.57
33163;BME280;29282;45.656;11.302;2022-11-13T05:36:16;99371.13;;;17.99;64.74
33163;BME280;29282;45.656;11.302;2022-11-13T05:38:43;99375.50;;;18.00;64.75
33163;BME280;29282;45.656;11.302;2022-11-13T05:41:16;99380.47;;;17.98;64.84
33163;BME280;29282;45.656;11.302;2022-11-13T05:43:43;99381.59;;;17.97;64.85
33163;BME280;29282;45.656;11.302;2022-11-13T05:46:23;99397.22;;;17.96;64.72
33163;BME280;29282;45.656;11.302;2022-11-13T05:48:57;99398.84;;;17.97;65.00
33163;BME280;29282;45.656;11.302;2022-11-13T05:51:26;99407.88;;;17.98;64.62
33163;BME280;29282;45.656;11.302;2022-11-13T05:53:53;99409.00;;;17.97;64.91
33163;BME280;29282;45.656;11.302;2022-11-13T05:56:23;99396.41;;;17.96;64.82
33163;BME280;29282;45.656;11.302;2022-11-13T05:58:50;99377.22;;;17.96;64.82
33163;BME280;29282;45.656;11.302;2022-11-13T06:01:22;99383.84;;;17.95;64.78
33163;BME280;29282;45.656;11.302;2022-11-13T06:03:49;99390.94;;;17.96;64.77
33163;BME280;29282;45.656;11.302;2022-11-13T06:06:17;99387.38;;;17.95;64.74
33163;BME280;29282;45.656;11.302;2022-11-13T06:08:43;99386.59;;;17.95;64.60
33163;BME280;29282;45.656;11.302;2022-11-13T06:11:11;99403.03;;;17.95;64.74
33163;BME280;29282;45.656;11.302;2022-11-13T06:13:37;99404.66;;;17.96;64.65
33163;BME280;29282;45.656;11.302;2022-11-13T06:16:09;99395.91;;;17.94;64.79
33163;BME280;29282;45.656;11.302;2022-11-13T06:18:35;99396.72;;;17.94;64.48
33163;BME280;29282;45.656;11.302;2022-11-13T06:21:02;99406.06;;;17.93;64.65
33163;BME280;29282;45.656;11.302;2022-11-13T06:23:28;99412.66;;;17.92;64.48
33163;BME280;29282;45.656;11.302;2022-11-13T06:26:09;99412.66;;;17.92;64.50
33163;BME280;29282;45.656;11.302;2022-11-13T06:28:35;99415.09;;;17.94;64.61
33163;BME280;29282;45.656;11.302;2022-11-13T06:31:08;99408.00;;;17.93;64.36
33163;BME280;29282;45.656;11.302;2022-11-13T06:33:35;99406.38;;;17.92;64.56
33163;BME280;29282;45.656;11.302;2022-11-13T06:36:02;99418.16;;;17.92;64.53
33163;BME280;29282;45.656;11.302;2022-11-13T06:38:32;99417.34;;;17.92;64.52
33163;BME280;29282;45.656;11.302;2022-11-13T06:40:59;99428.00;;;17.93;64.35
33163;BME280;29282;45.656;11.302;2022-11-13T06:43:25;99431.06;;;17.92;64.34
33163;BME280;29282;45.656;11.302;2022-11-13T06:45:51;99430.22;;;17.91;64.47
33163;BME280;29282;45.656;11.302;2022-11-13T06:48:17;99423.94;;;17.91;64.32
33163;BME280;29282;45.656;11.302;2022-11-13T06:50:43;99425.06;;;17.90;64.45
33163;BME280;29282;45.656;11.302;2022-11-13T06:53:08;99428.59;;;17.90;64.34
33163;BME280;29282;45.656;11.302;2022-11-13T06:55:34;99436.00;;;17.90;64.42
33163;BME280;29282;45.656;11.302;2022-11-13T06:57:59;99441.50;;;17.90;64.31
33163;BME280;29282;45.656;11.302;2022-11-13T07:00:25;99445.84;;;17.91;64.21
33163;BME280;29282;45.656;11.302;2022-11-13T07:02:53;99453.59;;;17.89;64.28
33163;BME280;29282;45.656;11.302;2022-11-13T07:05:18;99452.47;;;17.90;64.14
33163;BME280;29282;45.656;11.302;2022-11-13T07:07:44;99467.31;;;17.89;64.40
33163;BME280;29282;45.656;11.302;2022-11-13T07:10:09;99485.38;;;17.90;64.33
33163;BME280;29282;45.656;11.302;2022-11-13T07:12:35;99480.09;;;17.93;63.97
33163;BME280;29282;45.656;11.302;2022-11-13T07:15:00;99483.56;;;17.99;63.98
33163;BME280;29282;45.656;11.302;2022-11-13T07:17:27;99505.31;;;18.09;63.60
33163;BME280;29282;45.656;11.302;2022-11-13T07:19:53;99506.72;;;18.20;62.98
33163;BME280;29282;45.656;11.302;2022-11-13T07:22:18;99521.38;;;18.29;62.81
33163;BME280;29282;45.656;11.302;2022-11-13T07:24:44;99520.38;;;18.39;62.52
33163;BME280;29282;45.656;11.302;2022-11-13T07:27:09;99528.50;;;18.44;62.40
33163;BME280;29282;45.656;11.302;2022-11-13T07:29:35;99533.38;;;18.47;62.19
33163;BME280;29282;45.656;11.302;2022-11-13T07:32:04;99528.00;;;18.56;61.90
33163;BME280;29282;45.656;11.302;2022-11-13T07:34:29;99524.13;;;18.57;61.89
33163;BME280;29282;45.656;11.302;2022-11-13T07:36:55;99523.03;;;18.58;61.92
33163;BME280;29282;45.656;11.302;2022-11-13T07:39:20;99525.44;;;18.60;61.85
33163;BME280;29282;45.656;11.302;2022-11-13T07:41:46;99520.28;;;18.58;61.73
33163;BME280;29282;45.656;11.302;2022-11-13T07:44:12;99519.47;;;18.58;61.94
33163;BME280;29282;45.656;11.302;2022-11-13T07:46:37;99518.63;;;18.57;61.91
33163;BME280;29282;45.656;11.302;2022-11-13T07:49:03;99509.78;;;18.60;61.74
33163;BME280;29282;45.656;11.302;2022-11-13T07:51:28;99503.19;;;18.61;61.80
33163;BME280;29282;45.656;11.302;2022-11-13T07:53:54;99496.88;;;18.61;61.83
33163;BME280;29282;45.656;11.302;2022-11-13T07:56:19;99496.06;;;18.60;61.90
33163;BME280;29282;45.656;11.302;2022-11-13T07:58:47;99502.38;;;18.61;61.69
33163;BME280;29282;45.656;11.302;2022-11-13T08:01:13;99490.09;;;18.58;61.80
33163;BME280;29282;45.656;11.302;2022-11-13T08:03:38;99480.41;;;18.61;61.77
33163;BME280;29282;45.656;11.302;2022-11-13T08:06:05;99486.59;;;18.66;61.67
33163;BME280;29282;45.656;11.302;2022-11-13T08:08:32;99483.88;;;18.66;61.84
33163;BME280;29282;45.656;11.302;2022-11-13T08:11:01;99469.00;;;18.67;61.71
33163;BME280;29282;45.656;11.302;2022-11-13T08:13:27;99477.75;;;18.69;61.69
33163;BME280;29282;45.656;11.302;2022-11-13T08:15:52;99479.38;;;18.70;61.59
33163;BME280;29282;45.656;11.302;2022-11-13T08:18:18;99465.88;;;18.74;61.54
33163;BME280;29282;45.656;11.302;2022-11-13T08:20:43;99462.03;;;18.75;61.56
33163;BME280;29282;45.656;11.302;2022-11-13T08:23:08;99456.53;;;18.75;61.46
33163;BME280;29282;45.656;11.302;2022-11-13T08:25:34;99462.72;;;18.81;61.51
33163;BME280;29282;45.656;11.302;2022-11-13T08:28:00;99452.56;;;18.81;61.35
33163;BME280;29282;45.656;11.302;2022-11-13T08:30:26;99433.53;;;18.85;61.32
33163;BME280;29282;45.656;11.302;2022-11-13T08:32:52;99426.41;;;18.84;61.57
33163;BME280;29282;45.656;11.302;2022-11-13T08:35:18;99428.53;;;18.87;61.40
33163;BME280;29282;45.656;11.302;2022-11-13T08:37:44;99432.41;;;18.86;61.44
33163;BME280;29282;45.656;11.302;2022-11-13T08:40:10;99433.41;;;18.90;61.50
33163;BME280;29282;45.656;11.302;2022-11-13T08:42:36;99413.38;;;18.89;61.43
33163;BME280;29282;45.656;11.302;2022-11-13T08:45:03;99412.06;;;18.87;61.34
33163;BME280;29282;45.656;11.302;2022-11-13T08:47:29;99411.75;;;18.88;61.37
33163;BME280;29282;45.656;11.302;2022-11-13T08:49:55;99409.81;;;18.89;61.36
33163;BME280;29282;45.656;11.302;2022-11-13T08:52:21;99411.75;;;18.88;61.31
33163;BME280;29282;45.656;11.302;2022-11-13T08:54:47;99418.75;;;18.94;61.04
33163;BME280;29282;45.656;11.302;2022-11-13T08:57:15;99417.13;;;18.93;61.28
33163;BME280;29282;45.656;11.302;2022-11-13T08:59:41;99408.78;;;18.98;60.99
33163;BME280;29282;45.656;11.302;2022-11-13T09:02:09;99397.28;;;18.96;61.13
33163;BME280;29282;45.656;11.302;2022-11-13T09:04:37;99395.34;;;18.97;61.25
33163;BME280;29282;45.656;11.302;2022-11-13T09:07:02;99390.97;;;18.96;61.19
33163;BME280;29282;45.656;11.302;2022-11-13T09:09:28;99395.03;;;18.98;61.16
33163;BME280;29282;45.656;11.302;2022-11-13T09:11:56;99399.09;;;19.01;61.29
33163;BME280;29282;45.656;11.302;2022-11-13T09:14:21;99397.34;;;19.05;61.28
33163;BME280;29282;45.656;11.302;2022-11-13T09:16:49;99396.72;;;18.86;61.67
33163;BME280;29282;45.656;11.302;2022-11-13T09:19:14;99396.63;;;18.63;62.27
33163;BME280;29282;45.656;11.302;2022-11-13T09:21:40;99401.69;;;17.92;56.58
33163;BME280;29282;45.656;11.302;2022-11-13T09:24:06;99390.81;;;17.87;56.15
33163;BME280;29282;45.656;11.302;2022-11-13T09:26:34;99391.31;;;18.17;57.51
33163;BME280;29282;45.656;11.302;2022-11-13T09:29:00;99391.53;;;17.32;49.59
33163;BME280;29282;45.656;11.302;2022-11-13T09:31:25;99390.66;;;16.85;54.54
33163;BME280;29282;45.656;11.302;2022-11-13T09:33:51;99385.75;;;17.80;52.85
33163;BME280;29282;45.656;11.302;2022-11-13T09:36:16;99385.72;;;18.36;51.52
33163;BME280;29282;45.656;11.302;2022-11-13T09:38:42;99380.69;;;18.65;51.09
33163;BME280;29282;45.656;11.302;2022-11-13T09:41:14;99384.59;;;18.87;51.04
33163;BME280;29282;45.656;11.302;2022-11-13T09:43:49;99385.19;;;18.97;51.62
33163;BME280;29282;45.656;11.302;2022-11-13T09:46:45;99391.53;;;19.07;51.71
33163;BME280;29282;45.656;11.302;2022-11-13T09:49:24;99379.75;;;19.06;52.35
33163;BME280;29282;45.656;11.302;2022-11-13T09:51:52;99361.94;;;19.04;52.63
33163;BME280;29282;45.656;11.302;2022-11-13T09:54:20;99353.41;;;19.05;53.29
33163;BME280;29282;45.656;11.302;2022-11-13T10:08:13;99353.41;;;19.05;54.71
33163;BME280;29282;45.656;11.302;2022-11-13T10:17:17;99352.41;;;19.01;55.01
33163;BME280;29282;45.656;11.302;2022-11-13T10:19:25;99358.38;;;19.03;55.43
33163;BME280;29282;45.656;11.302;2022-11-13T10:21:57;99349.03;;;19.04;55.33
33163;BME280;29282;45.656;11.302;2022-11-13T10:24:27;99338.53;;;19.06;55.52
33163;BME280;29282;45.656;11.302;2022-11-13T10:26:55;99352.59;;;19.05;55.76
33163;BME280;29282;45.656;11.302;2022-11-13T10:29:28;99351.78;;;19.04;55.75
33163;BME280;29282;45.656;11.302;2022-11-13T10:31:54;99347.09;;;19.05;55.82
33163;BME280;29282;45.656;11.302;2022-11-13T10:34:19;99352.28;;;19.06;55.96
33163;BME280;29282;45.656;11.302;2022-11-13T10:37:12;99351.47;;;19.06;56.16
33163;BME280;29282;45.656;11.302;2022-11-13T10:39:47;99334.19;;;19.05;56.17
33163;BME280;29282;45.656;11.302;2022-11-13T10:42:42;99336.13;;;19.05;56.42
33163;BME280;29282;45.656;11.302;2022-11-13T10:45:16;99336.41;;;19.03;56.66
33163;BME280;29282;45.656;11.302;2022-11-13T10:47:50;99328.19;;;19.03;56.58
33163;BME280;29282;45.656;11.302;2022-11-13T10:50:24;99310.09;;;19.02;56.87
33163;BME280;29282;45.656;11.302;2022-11-13T10:52:52;99304.09;;;19.00;57.01
33163;BME280;29282;45.656;11.302;2022-11-13T10:57:57;99308.88;;;16.98;50.02
33163;BME280;29282;45.656;11.302;2022-11-13T11:02:55;99326.69;;;17.42;49.50
33163;BME280;29282;45.656;11.302;2022-11-13T11:05:23;99336.84;;;17.41;47.56
33163;BME280;29282;45.656;11.302;2022-11-13T11:07:49;99333.66;;;16.12;47.77
33163;BME280;29282;45.656;11.302;2022-11-13T11:10:22;99322.66;;;15.45;46.40
33163;BME280;29282;45.656;11.302;2022-11-13T11:12:51;99316.41;;;17.06;43.71
33163;BME280;29282;45.656;11.302;2022-11-13T11:15:22;99312.44;;;17.86;44.04
33163;BME280;29282;45.656;11.302;2022-11-13T11:18:02;99300.28;;;18.28;44.23
33163;BME280;29282;45.656;11.302;2022-11-13T11:20:47;99306.44;;;18.48;45.09
33163;BME280;29282;45.656;11.302;2022-11-13T11:25:53;99304.31;;;18.67;45.21
33163;BME280;29282;45.656;11.302;2022-11-13T11:28:29;99311.34;;;18.73;45.73
33163;BME280;29282;45.656;11.302;2022-11-13T11:31:04;99298.41;;;18.74;46.07
33163;BME280;29282;45.656;11.302;2022-11-13T11:36:54;99295.22;;;18.81;46.88
33163;BME280;29282;45.656;11.302;2022-11-13T11:42:46;99281.38;;;18.86;47.79
33163;BME280;29282;45.656;11.302;2022-11-13T11:45:37;99285.44;;;18.88;47.99
33163;BME280;29282;45.656;11.302;2022-11-13T11:48:02;99269.28;;;18.87;48.58
33163;BME280;29282;45.656;11.302;2022-11-13T11:55:55;99241.19;;;18.90;49.40
33163;BME280;29282;45.656;11.302;2022-11-13T12:04:49;99217.59;;;18.89;49.92
33163;BME280;29282;45.656;11.302;2022-11-13T12:21:00;99175.78;;;18.92;51.05
33163;BME280;29282;45.656;11.302;2022-11-13T12:29:39;99175.63;;;18.88;51.76
33163;BME280;29282;45.656;11.302;2022-11-13T12:32:21;99171.09;;;18.92;51.63
33163;BME280;29282;45.656;11.302;2022-11-13T12:34:59;99174.53;;;18.98;51.20
33163;BME280;29282;45.656;11.302;2022-11-13T12:37:37;99177.22;;;19.20;50.88
33163;BME280;29282;45.656;11.302;2022-11-13T12:40:13;99173.91;;;19.01;51.26
33163;BME280;29282;45.656;11.302;2022-11-13T12:42:47;99172.72;;;18.93;51.61
33163;BME280;29282;45.656;11.302;2022-11-13T12:45:44;99171.91;;;18.93;51.79
33163;BME280;29282;45.656;11.302;2022-11-13T12:48:26;99171.91;;;18.93;51.81
33163;BME280;29282;45.656;11.302;2022-11-13T12:51:00;99159.00;;;18.93;52.02
33163;BME280;29282;45.656;11.302;2022-11-13T13:07:19;99147.34;;;18.88;52.82
33163;BME280;29282;45.656;11.302;2022-11-13T13:10:12;99155.25;;;18.89;52.84
33163;BME280;29282;45.656;11.302;2022-11-13T13:12:52;99156.06;;;18.90;52.75
33163;BME280;29282;45.656;11.302;2022-11-13T13:15:39;99158.50;;;18.91;52.87
33163;BME280;29282;45.656;11.302;2022-11-13T13:20:45;99173.03;;;18.92;53.23
33163;BME280;29282;45.656;11.302;2022-11-13T13:23:27;99165.28;;;18.94;53.27
33163;BME280;29282;45.656;11.302;2022-11-13T13:26:05;99159.50;;;18.95;53.24
33163;BME280;29282;45.656;11.302;2022-11-13T13:28:41;99150.44;;;18.95;53.50
33163;BME280;29282;45.656;11.302;2022-11-13T13:47:37;99150.13;;;18.96;54.33
33163;BME280;29282;45.656;11.302;2022-11-13T13:50:06;99142.69;;;18.97;54.54
33163;BME280;29282;45.656;11.302;2022-11-13T13:52:33;99144.31;;;18.98;54.59
33163;BME280;29282;45.656;11.302;2022-11-13T13:55:05;99146.56;;;18.96;54.63
33163;BME280;29282;45.656;11.302;2022-11-13T13:57:32;99141.41;;;18.94;55.05
33163;BME280;29282;45.656;11.302;2022-11-13T13:59:59;99143.81;;;18.96;54.99
33163;BME280;29282;45.656;11.302;2022-11-13T14:02:24;99147.88;;;18.98;55.00
33163;BME280;29282;45.656;11.302;2022-11-13T14:04:52;99142.38;;;18.98;55.12
33163;BME280;29282;45.656;11.302;2022-11-13T14:07:26;99143.50;;;18.97;55.07
33163;BME280;29282;45.656;11.302;2022-11-13T14:12:45;99142.69;;;18.97;55.20
33163;BME280;29282;45.656;11.302;2022-11-13T14:17:51;99139.13;;;18.96;56.48
33163;BME280;29282;45.656;11.302;2022-11-13T14:20:20;99143.81;;;18.96;56.44
33163;BME280;29282;45.656;11.302;2022-11-13T14:22:48;99139.94;;;18.97;56.25
33163;BME280;29282;45.656;11.302;2022-11-13T14:25:25;99142.22;;;18.95;56.06
33163;BME280;29282;45.656;11.302;2022-11-13T14:27:51;99149.31;;;18.96;56.04
33163;BME280;29282;45.656;11.302;2022-11-13T14:30:26;99151.56;;;18.94;56.02
33163;BME280;29282;45.656;11.302;2022-11-13T14:32:52;99145.25;;;18.93;56.19
33163;BME280;29282;45.656;11.302;2022-11-13T14:35:24;99144.94;;;18.95;56.15
33163;BME280;29282;45.656;11.302;2022-11-13T14:37:52;99141.69;;;18.93;56.20
33163;BME280;29282;45.656;11.302;2022-11-13T14:40:29;99137.81;;;18.94;56.10
33163;BME280;29282;45.656;11.302;2022-11-13T14:43:02;99135.06;;;18.94;56.06